Time;durP1;ratioP1;P1;durP2;ratioP2;P2;SDS_P1;SDS_P2;PMS_P1;PMS_P2;Temp;Humidity;BMP_temperature;BMP_pressure;BME280_temperature;BME280_humidity;BME280_pressure;Samples;Min_cycle;Max_cycle;Signal;HPM_P1;HPM_P2
2022/04/09 00:00:36;;;;;;;8.60;8.40;;;2.30;97.60;;;;;;6215278;23;20183;-76
2022/04/09 00:03:07;;;;;;;8.30;8.10;;;2.30;97.10;;;;;;6215885;23;20166;-77
2022/04/09 00:05:33;;;;;;;8.70;8.50;;;2.30;96.90;;;;;;6215802;23;20158;-78
2022/04/09 00:07:59;;;;;;;9.23;9.03;;;2.30;97.20;;;;;;6215472;23;20224;-78
2022/04/09 00:10:25;;;;;;;8.90;8.60;;;2.20;97.10;;;;;;6215126;23;20183;-78
2022/04/09 00:12:51;;;;;;;8.90;8.70;;;2.30;97.80;;;;;;6215401;23;20158;-78
2022/04/09 00:15:16;;;;;;;9.07;8.87;;;2.40;98.00;;;;;;6215257;23;20425;-78
2022/04/09 00:17:45;;;;;;;8.70;8.50;;;2.40;97.90;;;;;;6215447;23;20162;-78
2022/04/09 00:20:14;;;;;;;8.95;8.65;;;2.40;98.10;;;;;;6214519;23;20233;-78
2022/04/09 00:22:41;;;;;;;8.93;8.73;;;2.50;98.20;;;;;;6214822;23;20155;-78
2022/04/09 00:25:08;;;;;;;9.63;9.32;;;2.50;98.80;;;;;;6215510;23;20185;-77
2022/04/09 00:27:35;;;;;;;9.30;9.00;;;2.50;98.20;;;;;;6215221;23;20190;-78
2022/04/09 00:30:01;;;;;;;9.77;9.47;;;2.50;98.40;;;;;;6214370;23;20245;-78
2022/04/09 00:32:26;;;;;;;9.57;9.27;;;2.50;98.10;;;;;;6214993;23;20867;-77
2022/04/09 00:34:52;;;;;;;9.30;9.00;;;2.50;98.20;;;;;;6214701;23;20386;-78
2022/04/09 00:37:17;;;;;;;9.60;9.30;;;2.50;97.90;;;;;;6215427;23;20638;-78
2022/04/09 00:39:44;;;;;;;9.17;8.87;;;2.50;98.30;;;;;;6215845;23;20178;-78
2022/04/09 00:42:18;;;;;;;9.80;9.50;;;2.50;97.30;;;;;;6241877;23;20179;-76
2022/04/09 00:44:44;;;;;;;10.30;10.00;;;2.50;98.40;;;;;;6215184;23;20170;-77
2022/04/09 00:47:10;;;;;;;10.13;9.82;;;2.50;98.50;;;;;;6241837;23;21018;-76
2022/04/09 00:49:37;;;;;;;11.05;10.65;;;2.40;97.40;;;;;;6214733;23;20162;-76
2022/04/09 00:52:05;;;;;;;9.57;9.27;;;2.50;98.40;;;;;;6214977;23;20182;-77
2022/04/09 00:54:32;;;;;;;11.00;10.70;;;2.50;98.60;;;;;;6215890;23;20239;-76
2022/04/09 00:57:05;;;;;;;10.57;10.27;;;2.50;97.80;;;;;;6215757;23;20147;-77
2022/04/09 00:59:41;;;;;;;10.75;10.45;;;2.50;97.90;;;;;;6214925;23;20389;-77
2022/04/09 01:02:08;;;;;;;11.17;10.87;;;2.50;97.90;;;;;;6215286;23;20147;-77
2022/04/09 01:04:34;;;;;;;10.60;10.30;;;2.60;97.90;;;;;;6215414;23;20475;-77
2022/04/09 01:07:00;;;;;;;10.43;10.13;;;2.50;97.70;;;;;;6214476;23;20158;-76
2022/04/09 01:09:26;;;;;;;9.33;9.03;;;2.50;97.80;;;;;;6215216;23;20542;-77
2022/04/09 01:11:53;;;;;;;9.80;9.50;;;2.60;98.30;;;;;;6215666;23;20179;-77
2022/04/09 01:14:19;;;;;;;9.80;9.50;;;2.60;98.50;;;;;;6214930;23;20183;-77
2022/04/09 01:16:45;;;;;;;10.30;10.00;;;2.70;98.10;;;;;;6214120;23;20162;-77
2022/04/09 01:19:10;;;;;;;10.70;10.37;;;2.60;98.00;;;;;;6214933;23;20162;-77
2022/04/09 01:21:38;;;;;;;11.27;10.87;;;2.60;98.00;;;;;;6215111;23;20171;-77
2022/04/09 01:24:04;;;;;;;11.35;10.95;;;2.60;98.00;;;;;;6214979;23;20601;-77
2022/04/09 01:26:30;;;;;;;11.80;11.40;;;2.60;98.20;;;;;;6216365;23;20156;-77
2022/04/09 01:28:56;;;;;;;11.10;10.70;;;2.70;98.00;;;;;;6215020;23;20389;-77
2022/04/09 01:31:21;;;;;;;11.70;11.20;;;2.60;98.00;;;;;;6214981;23;20460;-77
2022/04/09 01:33:47;;;;;;;11.20;10.80;;;2.60;98.60;;;;;;6214607;23;20690;-77
2022/04/09 01:36:14;;;;;;;11.03;10.63;;;2.60;98.10;;;;;;6215409;23;20161;-77
2022/04/09 01:38:40;;;;;;;11.35;10.95;;;2.60;98.40;;;;;;6214552;23;20154;-77
2022/04/09 01:41:06;;;;;;;11.50;11.10;;;2.70;98.90;;;;;;6214993;23;20162;-77
2022/04/09 01:43:32;;;;;;;11.37;10.97;;;2.80;98.80;;;;;;6214582;23;20776;-77
2022/04/09 01:45:58;;;;;;;11.40;11.00;;;2.80;98.50;;;;;;6214899;23;20160;-77
2022/04/09 01:48:23;;;;;;;11.10;10.63;;;2.80;98.90;;;;;;6214499;23;20158;-77
2022/04/09 01:50:49;;;;;;;10.93;10.43;;;2.80;99.00;;;;;;6214783;23;20426;-77
2022/04/09 01:53:15;;;;;;;11.20;10.80;;;2.80;98.40;;;;;;6242058;23;20200;-77
2022/04/09 01:55:40;;;;;;;10.97;10.57;;;2.80;99.00;;;;;;6214855;23;20576;-76
2022/04/09 01:58:06;;;;;;;11.23;10.70;;;2.90;99.30;;;;;;6214723;23;20533;-77
2022/04/09 02:00:32;;;;;;;11.65;11.05;;;3.00;98.90;;;;;;6214239;23;20383;-77
2022/04/09 02:02:58;;;;;;;11.63;11.13;;;3.00;98.60;;;;;;6214776;23;20155;-77
2022/04/09 02:05:24;;;;;;;10.70;10.20;;;3.00;98.70;;;;;;6213763;23;20897;-76
2022/04/09 02:07:51;;;;;;;12.70;11.90;;;2.90;98.40;;;;;;6214253;23;20477;-77
2022/04/09 02:10:18;;;;;;;11.35;10.70;;;2.80;98.60;;;;;;6214349;23;20183;-77
2022/04/09 02:12:44;;;;;;;11.90;11.30;;;2.90;98.90;;;;;;6214323;23;20162;-77
2022/04/09 02:15:13;;;;;;;11.07;10.67;;;3.00;99.40;;;;;;6215003;23;20693;-77
2022/04/09 02:17:40;;;;;;;12.00;11.40;;;3.00;99.20;;;;;;6215141;23;20473;-77
2022/04/09 02:20:08;;;;;;;12.30;11.60;;;3.00;99.40;;;;;;6216440;23;20401;-77
2022/04/09 02:22:38;;;;;;;11.23;10.75;;;3.00;99.40;;;;;;6217812;23;20403;-77
2022/04/09 02:25:05;;;;;;;13.30;12.70;;;3.00;99.60;;;;;;6217296;23;20479;-77
2022/04/09 02:27:30;;;;;;;13.00;12.32;;;3.00;99.50;;;;;;6217688;23;20512;-77
2022/04/09 02:29:56;;;;;;;12.60;12.03;;;3.10;99.90;;;;;;6216601;23;20224;-77
2022/04/09 02:32:22;;;;;;;12.63;12.03;;;3.10;98.90;;;;;;6216872;23;20154;-77
2022/04/09 02:34:49;;;;;;;12.67;12.07;;;3.10;99.70;;;;;;6216458;23;20873;-77
2022/04/09 02:37:15;;;;;;;13.02;12.23;;;3.10;99.60;;;;;;6217278;23;20159;-77
2022/04/09 02:39:41;;;;;;;13.50;12.67;;;3.30;99.60;;;;;;6217087;23;20151;-78
2022/04/09 02:42:07;;;;;;;13.37;12.67;;;3.20;98.00;;;;;;6216849;23;20155;-78
2022/04/09 02:44:32;;;;;;;13.77;12.87;;;3.10;99.00;;;;;;6216739;23;20513;-77
2022/04/09 02:46:58;;;;;;;13.87;13.27;;;3.20;99.10;;;;;;6217101;23;20159;-77
2022/04/09 02:49:24;;;;;;;13.40;12.80;;;3.20;99.40;;;;;;6216356;23;20219;-77
2022/04/09 02:51:49;;;;;;;13.73;13.13;;;3.30;99.70;;;;;;6215408;23;20183;-77
2022/04/09 02:54:16;;;;;;;13.90;13.00;;;3.20;99.20;;;;;;6216917;23;20159;-77
2022/04/09 02:56:46;;;;;;;13.50;12.90;;;3.20;99.00;;;;;;6216254;23;20159;-77
2022/04/09 02:59:13;;;;;;;13.73;13.17;;;3.10;98.60;;;;;;6216843;23;20143;-77
2022/04/09 03:01:40;;;;;;;13.97;13.37;;;3.10;98.40;;;;;;6216482;23;20390;-77
2022/04/09 03:04:06;;;;;;;14.00;13.20;;;3.20;99.30;;;;;;6217322;23;20443;-77
2022/04/09 03:06:32;;;;;;;14.47;13.87;;;3.20;99.50;;;;;;6216542;23;20567;-77
2022/04/09 03:08:58;;;;;;;12.60;12.10;;;3.20;99.30;;;;;;6217292;23;20393;-77
2022/04/09 03:11:23;;;;;;;12.60;12.10;;;3.20;99.00;;;;;;6216885;23;20517;-78
2022/04/09 03:13:49;;;;;;;14.57;13.97;;;3.30;99.50;;;;;;6242955;23;20585;-78
2022/04/09 03:16:14;;;;;;;14.60;14.00;;;3.30;99.20;;;;;;6216544;23;20163;-78
2022/04/09 03:18:40;;;;;;;13.97;13.37;;;3.30;98.30;;;;;;6217269;23;20152;-77
2022/04/09 03:21:06;;;;;;;13.37;12.87;;;3.30;98.40;;;;;;6217082;23;20511;-77
2022/04/09 03:23:31;;;;;;;14.98;14.27;;;3.30;98.30;;;;;;6216406;23;20392;-77
2022/04/09 03:25:57;;;;;;;16.10;15.40;;;3.30;98.40;;;;;;6217666;23;20229;-77
2022/04/09 03:28:23;;;;;;;15.30;14.60;;;3.30;97.70;;;;;;6218461;23;20159;-77
2022/04/09 03:30:49;;;;;;;16.20;15.40;;;3.30;97.80;;;;;;6217965;23;20266;-78
2022/04/09 03:33:14;;;;;;;15.30;14.63;;;3.40;98.20;;;;;;6217792;23;20666;-77
2022/04/09 03:35:41;;;;;;;15.40;14.67;;;3.40;98.30;;;;;;6217987;23;20205;-77
2022/04/09 03:38:10;;;;;;;15.60;14.85;;;3.40;98.70;;;;;;6217691;23;20383;-78
2022/04/09 03:40:36;;;;;;;16.73;15.93;;;3.40;98.30;;;;;;6219176;23;20163;-77
2022/04/09 03:43:02;;;;;;;17.20;16.30;;;3.40;98.50;;;;;;6217932;23;20163;-77
2022/04/09 03:45:27;;;;;;;18.17;17.23;;;3.40;98.40;;;;;;6218412;23;20429;-77
2022/04/09 03:47:53;;;;;;;18.20;17.20;;;3.40;98.80;;;;;;6219016;23;20154;-77
2022/04/09 03:50:20;;;;;;;19.10;17.97;;;3.40;99.10;;;;;;6219219;23;20183;-76
2022/04/09 03:52:45;;;;;;;22.57;21.07;;;3.50;99.10;;;;;;6219149;23;20159;-77
2022/04/09 03:55:11;;;;;;;22.13;20.83;;;3.50;99.30;;;;;;6218839;23;20382;-79
2022/04/09 03:57:37;;;;;;;21.43;20.13;;;3.50;99.30;;;;;;6219006;23;20162;-77
2022/04/09 04:00:03;;;;;;;23.10;21.50;;;3.50;98.90;;;;;;6219391;23;20382;-77
2022/04/09 04:02:29;;;;;;;23.67;22.17;;;3.60;99.00;;;;;;6218164;23;20397;-79
2022/04/09 04:04:54;;;;;;;22.83;21.23;;;3.50;96.90;;;;;;6218640;23;20394;-78
2022/04/09 04:07:22;;;;;;;24.10;22.43;;;3.50;97.20;;;;;;6219100;23;20178;-79
2022/04/09 04:09:48;;;;;;;22.83;21.23;;;3.60;97.80;;;;;;6218998;23;20209;-78
2022/04/09 04:12:14;;;;;;;23.07;21.47;;;3.50;96.90;;;;;;6218941;23;20444;-78
2022/04/09 04:14:39;;;;;;;24.33;22.63;;;3.60;97.00;;;;;;6218943;23;20752;-78
2022/04/09 04:17:05;;;;;;;25.80;23.60;;;3.50;97.00;;;;;;6218929;23;20476;-79
2022/04/09 04:19:31;;;;;;;24.83;23.07;;;3.50;96.30;;;;;;6245739;23;20150;-79
2022/04/09 04:21:56;;;;;;;27.67;25.17;;;3.50;96.60;;;;;;6217745;23;20206;-79
2022/04/09 04:24:23;;;;;;;26.93;24.83;;;3.50;96.30;;;;;;6217244;23;20162;-80
2022/04/09 04:26:49;;;;;;;25.00;23.30;;;3.50;97.00;;;;;;6217594;23;20544;-79
2022/04/09 04:29:15;;;;;;;26.97;24.87;;;3.50;96.80;;;;;;6217472;23;20390;-79
2022/04/09 04:31:40;;;;;;;24.83;23.10;;;3.50;97.30;;;;;;6217370;23;20194;-78
2022/04/09 04:34:06;;;;;;;28.07;25.93;;;3.50;97.40;;;;;;6244416;23;20170;-78
2022/04/09 04:36:32;;;;;;;26.07;24.03;;;3.40;95.00;;;;;;6217628;23;20162;-79
2022/04/09 04:38:57;;;;;;;27.13;25.13;;;3.50;97.00;;;;;;6217576;23;20158;-79
2022/04/09 04:41:23;;;;;;;26.53;24.83;;;3.50;97.40;;;;;;6217671;23;20163;-79
2022/04/09 04:43:51;;;;;;;26.37;24.47;;;3.50;96.50;;;;;;6244344;23;20147;-79
2022/04/09 04:46:18;;;;;;;27.47;25.57;;;3.50;96.30;;;;;;6217484;23;20155;-79
2022/04/09 04:48:48;;;;;;;26.20;24.50;;;3.50;95.30;;;;;;6217882;23;20378;-79
2022/04/09 04:51:14;;;;;;;28.00;25.83;;;3.30;95.20;;;;;;6217876;23;20508;-79
2022/04/09 04:53:39;;;;;;;28.87;26.47;;;3.30;95.20;;;;;;6218039;23;20414;-79
2022/04/09 04:56:05;;;;;;;26.83;24.83;;;3.40;95.10;;;;;;6218002;23;20159;-79
2022/04/09 04:58:31;;;;;;;26.10;24.20;;;3.40;95.60;;;;;;6217967;23;20191;-79
2022/04/09 05:00:56;;;;;;;24.37;22.77;;;3.50;96.00;;;;;;6217612;23;20163;-79
2022/04/09 05:03:22;;;;;;;25.93;23.77;;;3.40;94.60;;;;;;6217709;23;20159;-78
2022/04/09 05:05:48;;;;;;;26.60;24.83;;;3.40;95.20;;;;;;6218037;23;20159;-78
2022/04/09 05:08:14;;;;;;;26.03;24.23;;;3.50;95.70;;;;;;6218396;23;20239;-78
2022/04/09 05:10:39;;;;;;;27.13;25.03;;;3.40;94.30;;;;;;6217533;23;20657;-78
2022/04/09 05:13:05;;;;;;;24.63;23.03;;;3.40;94.90;;;;;;6217864;23;20250;-79
2022/04/09 05:15:31;;;;;;;24.93;23.37;;;3.40;95.60;;;;;;6217462;23;20151;-78
2022/04/09 05:17:57;;;;;;;29.90;27.37;;;3.40;95.00;;;;;;6217907;23;20158;-79
2022/04/09 05:20:23;;;;;;;26.73;24.60;;;3.50;96.00;;;;;;6166895;23;1089996;-79
2022/04/09 05:22:49;;;;;;;25.50;23.60;;;3.50;95.00;;;;;;6198114;23;20431;-79
2022/04/09 05:25:19;;;;;;;26.47;24.50;;;3.50;95.20;;;;;;6218669;23;20239;-79
2022/04/09 05:27:46;;;;;;;26.92;24.92;;;3.50;94.70;;;;;;6219079;23;20385;-79
2022/04/09 05:30:12;;;;;;;27.77;25.87;;;3.50;94.60;;;;;;6219180;23;20178;-79
2022/04/09 05:32:39;;;;;;;25.60;23.90;;;3.50;93.50;;;;;;6219722;23;20386;-80
2022/04/09 05:35:07;;;;;;;24.93;23.33;;;3.50;94.20;;;;;;6219874;23;20240;-78
2022/04/09 05:37:32;;;;;;;26.17;24.17;;;3.60;95.50;;;;;;6219204;23;20390;-79
2022/04/09 05:39:58;;;;;;;27.97;26.07;;;3.50;95.60;;;;;;6218797;23;20390;-78
2022/04/09 05:42:25;;;;;;;27.63;24.93;;;3.60;96.10;;;;;;6219540;23;20152;-79
2022/04/09 05:44:52;;;;;;;27.53;25.20;;;3.70;96.20;;;;;;6218325;23;20158;-78
2022/04/09 05:47:18;;;;;;;25.37;23.67;;;3.70;95.70;;;;;;6218896;23;20479;-79
2022/04/09 05:49:44;;;;;;;29.70;27.43;;;3.60;95.20;;;;;;6218918;23;20419;-78
2022/04/09 05:52:09;;;;;;;27.87;25.97;;;3.50;93.80;;;;;;6218227;23;20432;-79
2022/04/09 05:54:35;;;;;;;28.97;26.67;;;3.60;94.50;;;;;;6220238;23;20151;-79
2022/04/09 05:57:02;;;;;;;29.40;27.33;;;3.50;94.10;;;;;;6221040;23;20238;-79
2022/04/09 05:59:28;;;;;;;27.97;26.00;;;3.50;94.50;;;;;;6221096;23;20162;-79
2022/04/09 06:01:54;;;;;;;26.53;24.97;;;3.50;94.60;;;;;;6220987;23;20394;-79
2022/04/09 06:04:20;;;;;;;29.30;27.47;;;3.60;95.10;;;;;;6220818;23;20456;-79
2022/04/09 06:06:49;;;;;;;32.60;27.20;;;3.50;94.90;;;;;;6220557;23;20478;-78
2022/04/09 06:09:15;;;;;;;28.90;27.17;;;3.50;94.70;;;;;;6220789;23;20397;-78
2022/04/09 06:11:44;;;;;;;26.93;25.13;;;3.60;95.30;;;;;;6220147;23;20464;-78
2022/04/09 06:14:10;;;;;;;29.20;27.40;;;3.60;94.90;;;;;;6220462;23;20750;-78
2022/04/09 06:16:38;;;;;;;26.93;25.20;;;3.60;95.40;;;;;;6220195;23;20389;-77
2022/04/09 06:19:05;;;;;;;26.37;24.83;;;3.60;94.80;;;;;;6221168;23;20151;-77
2022/04/09 06:21:32;;;;;;;28.47;26.50;;;3.60;94.30;;;;;;6218928;23;20747;-78
2022/04/09 06:23:58;;;;;;;29.27;26.90;;;3.60;94.30;;;;;;6219777;23;20441;-78
2022/04/09 06:26:24;;;;;;;31.27;29.33;;;3.70;93.50;;;;;;6218832;23;20386;-78
2022/04/09 06:28:50;;;;;;;29.73;27.57;;;3.60;93.50;;;;;;6219935;23;20421;-77
2022/04/09 06:31:16;;;;;;;28.30;26.70;;;3.60;93.50;;;;;;6219763;23;20193;-78
2022/04/09 06:33:41;;;;;;;28.33;26.67;;;3.60;92.30;;;;;;6219477;23;20418;-78
2022/04/09 06:36:08;;;;;;;26.73;25.23;;;3.70;91.90;;;;;;6219888;23;20170;-78
2022/04/09 06:38:34;;;;;;;26.73;25.13;;;3.70;92.80;;;;;;6219753;23;20597;-78
2022/04/09 06:40:59;;;;;;;25.93;24.43;;;3.70;93.40;;;;;;6220342;23;20396;-77
2022/04/09 06:43:26;;;;;;;28.20;26.30;;;3.80;93.70;;;;;;6219774;23;20151;-78
2022/04/09 06:45:52;;;;;;;27.57;26.07;;;3.80;93.60;;;;;;6220213;23;20162;-78
2022/04/09 06:48:18;;;;;;;26.40;24.67;;;3.90;94.00;;;;;;6220324;23;20389;-78
2022/04/09 06:50:43;;;;;;;28.77;26.97;;;3.90;93.10;;;;;;6246946;23;20453;-78
2022/04/09 06:53:09;;;;;;;25.20;23.60;;;3.90;91.70;;;;;;6219954;23;20151;-77
2022/04/09 06:55:35;;;;;;;27.87;25.83;;;3.90;92.80;;;;;;6218082;23;20159;-78
2022/04/09 06:58:01;;;;;;;25.43;23.83;;;3.90;92.40;;;;;;6220080;23;20159;-78
2022/04/09 07:00:27;;;;;;;26.17;24.20;;;3.90;92.40;;;;;;6219936;23;20870;-78
2022/04/09 07:02:53;;;;;;;27.10;24.87;;;3.90;92.00;;;;;;6219697;23;20406;-78
2022/04/09 07:05:19;;;;;;;28.87;26.57;;;3.90;92.90;;;;;;6219227;23;20391;-78
2022/04/09 07:07:50;;;;;;;27.73;25.60;;;3.90;93.20;;;;;;6219865;23;20163;-80
2022/04/09 07:10:16;;;;;;;25.60;24.10;;;4.00;93.80;;;;;;6219792;23;20217;-77
2022/04/09 07:12:43;;;;;;;24.77;23.20;;;4.00;93.90;;;;;;6220112;23;21163;-78
2022/04/09 07:15:09;;;;;;;28.33;26.73;;;4.00;92.70;;;;;;6219998;23;20463;-78
2022/04/09 07:17:36;;;;;;;29.27;27.57;;;3.90;92.10;;;;;;6219964;23;20389;-78
2022/04/09 07:20:05;;;;;;;27.50;25.60;;;4.10;92.40;;;;;;6219861;23;20389;-78
2022/04/09 07:22:33;;;;;;;26.97;25.47;;;4.10;92.60;;;;;;6246627;23;20397;-77
2022/04/09 07:24:59;;;;;;;26.43;24.60;;;4.20;93.20;;;;;;6219587;23;20374;-78
2022/04/09 07:27:39;;;;;;;30.37;28.27;;;4.20;92.10;;;;;;6219729;23;20387;-79
2022/04/09 07:30:07;;;;;;;29.87;28.07;;;4.20;91.20;;;;;;6219542;23;20759;-78
2022/04/09 07:32:33;;;;;;;28.50;26.73;;;4.20;90.60;;;;;;6219599;23;20703;-78
2022/04/09 07:34:59;;;;;;;28.40;25.93;;;4.20;90.90;;;;;;6219524;23;20393;-78
2022/04/09 07:37:25;;;;;;;27.53;25.53;;;4.30;91.60;;;;;;6219887;23;20469;-79
2022/04/09 07:39:52;;;;;;;29.07;27.17;;;4.40;91.70;;;;;;6219545;23;20783;-79
2022/04/09 07:42:18;;;;;;;25.77;24.17;;;4.40;89.40;;;;;;6219745;23;20542;-79
2022/04/09 07:44:43;;;;;;;25.17;23.70;;;4.40;90.00;;;;;;6219303;23;20391;-79
2022/04/09 07:47:09;;;;;;;25.50;23.90;;;4.40;90.40;;;;;;6219572;23;20710;-79
2022/04/09 07:49:34;;;;;;;26.37;24.57;;;4.50;91.00;;;;;;6219284;23;20163;-79
2022/04/09 07:52:00;;;;;;;24.80;23.10;;;4.60;90.60;;;;;;6219579;23;20212;-79
2022/04/09 07:54:29;;;;;;;24.63;23.13;;;4.60;90.60;;;;;;6219434;23;20155;-79
2022/04/09 07:56:55;;;;;;;26.33;24.30;;;4.60;91.50;;;;;;6219357;23;20234;-79
2022/04/09 07:59:21;;;;;;;27.93;26.00;;;4.60;91.30;;;;;;6219456;23;20417;-79
2022/04/09 08:01:46;;;;;;;26.70;25.20;;;4.70;92.00;;;;;;6219233;23;20709;-79
2022/04/09 08:04:12;;;;;;;31.17;29.23;;;4.70;92.00;;;;;;6219089;23;20469;-79
2022/04/09 08:06:38;;;;;;;27.57;25.57;;;4.70;90.90;;;;;;6219276;23;20156;-78
2022/04/09 08:09:04;;;;;;;27.67;25.87;;;4.70;91.70;;;;;;6219287;23;20167;-79
2022/04/09 08:11:30;;;;;;;25.80;24.30;;;4.80;92.80;;;;;;6219407;23;20425;-78
2022/04/09 08:13:57;;;;;;;25.20;23.60;;;4.90;91.80;;;;;;6244271;23;20374;-78
2022/04/09 08:16:25;;;;;;;28.40;26.60;;;4.80;89.50;;;;;;6218719;23;20155;-78
2022/04/09 08:19:01;;;;;;;28.17;26.37;;;4.90;90.20;;;;;;6218781;23;20390;-80
2022/04/09 08:21:26;;;;;;;26.33;24.80;;;4.90;90.30;;;;;;6218321;23;20406;-86
2022/04/09 08:23:52;;;;;;;25.30;23.30;;;4.90;90.30;;;;;;6218245;23;21064;-82
2022/04/09 08:26:18;;;;;;;24.97;23.40;;;5.00;91.40;;;;;;6218229;23;20483;-77
2022/04/09 08:28:43;;;;;;;27.37;25.60;;;5.00;89.50;;;;;;6218495;23;20604;-84
2022/04/09 08:31:09;;;;;;;30.03;28.10;;;4.90;85.90;;;;;;6218134;23;20244;-84
2022/04/09 08:33:35;;;;;;;25.83;24.13;;;4.90;89.40;;;;;;6217919;23;20159;-84
2022/04/09 08:36:02;;;;;;;26.30;24.70;;;4.90;89.50;;;;;;6217814;23;20156;-83
2022/04/09 08:38:28;;;;;;;28.73;26.97;;;4.90;89.00;;;;;;6218536;23;20596;-82
2022/04/09 08:40:55;;;;;;;28.90;27.27;;;4.90;87.00;;;;;;6218290;23;20471;-83
2022/04/09 08:43:21;;;;;;;29.67;27.87;;;4.80;84.10;;;;;;6218280;23;20382;-83
2022/04/09 08:45:47;;;;;;;33.17;30.97;;;4.70;84.70;;;;;;6217819;23;20412;-83
2022/04/09 08:48:21;;;;;;;29.30;27.40;;;4.80;82.50;;;;;;6219068;23;20863;-83
2022/04/09 08:51:07;;;;;;;31.03;29.13;;;4.70;84.40;;;;;;6218443;23;20429;-84
2022/04/09 08:53:36;;;;;;;29.50;26.87;;;4.70;82.80;;;;;;6218769;23;20470;-83
2022/04/09 08:56:02;;;;;;;28.30;26.40;;;4.70;83.70;;;;;;6219164;23;20757;-83
2022/04/09 08:58:29;;;;;;;29.67;27.77;;;4.60;83.60;;;;;;6218860;23;20378;-84
2022/04/09 09:00:58;;;;;;;27.27;25.67;;;4.60;84.00;;;;;;6218893;23;20194;-84
2022/04/09 09:03:24;;;;;;;30.87;29.03;;;4.70;85.40;;;;;;6219140;23;20386;-84
2022/04/09 09:09:32;;;;;;;28.43;26.77;;;4.70;86.80;;;;;;6246428;23;20534;-83
2022/04/09 09:12:07;;;;;;;32.37;30.03;;;4.80;87.80;;;;;;6218929;23;20484;-85
2022/04/09 09:14:34;;;;;;;29.37;27.53;;;4.70;82.50;;;;;;6219088;23;20435;-83
2022/04/09 09:17:02;;;;;;;28.47;26.57;;;4.80;86.90;;;;;;6219176;23;20466;-83
2022/04/09 09:19:52;;;;;;;27.10;25.10;;;4.80;86.90;;;;;;6219096;23;20378;-83
2022/04/09 09:22:42;;;;;;;31.83;30.10;;;4.90;90.00;;;;;;6219084;23;20444;-83
2022/04/09 09:25:11;;;;;;;32.53;30.47;;;4.90;80.70;;;;;;6219665;23;20386;-83
2022/04/09 09:28:25;;;;;;;31.60;29.33;;;5.00;77.50;;;;;;6220779;23;20390;-83
2022/04/09 09:30:51;;;;;;;27.97;25.90;;;5.10;80.70;;;;;;6247801;23;20410;-84
2022/04/09 09:33:17;;;;;;;30.57;28.77;;;5.00;82.90;;;;;;6219573;23;20448;-83
2022/04/09 09:35:50;;;;;;;34.80;32.47;;;5.00;80.90;;;;;;6219745;23;20448;-84
2022/04/09 09:38:21;;;;;;;34.03;32.00;;;5.10;79.80;;;;;;6219527;23;20414;-83
2022/04/09 09:40:48;;;;;;;27.53;25.83;;;5.10;77.00;;;;;;6219351;23;20386;-83
2022/04/09 09:43:21;;;;;;;31.90;30.17;;;5.00;86.00;;;;;;6219172;23;20386;-83
2022/04/09 09:45:49;;;;;;;29.80;28.10;;;5.10;80.00;;;;;;6219065;23;20420;-83
2022/04/09 09:48:29;;;;;;;30.43;28.70;;;5.10;83.00;;;;;;6219026;23;20394;-83
2022/04/09 09:50:57;;;;;;;38.30;36.30;;;5.20;85.60;;;;;;6219239;23;20437;-83
2022/04/09 09:53:32;;;;;;;33.50;31.30;;;5.20;78.40;;;;;;6219249;23;20384;-83
2022/04/09 09:55:59;;;;;;;27.43;25.67;;;5.20;82.70;;;;;;6219505;23;20394;-83
2022/04/09 09:58:32;;;;;;;28.00;26.23;;;5.30;87.40;;;;;;6219185;23;20843;-83
2022/04/09 10:01:23;;;;;;;32.57;30.40;;;5.40;86.50;;;;;;6219219;23;20386;-84
2022/04/09 10:03:49;;;;;;;35.00;33.00;;;5.40;76.30;;;;;;6219094;23;20378;-84
2022/04/09 10:06:15;;;;;;;32.27;30.57;;;5.40;77.90;;;;;;6219242;23;20386;-84
2022/04/09 10:12:05;;;;;;;31.53;29.63;;;5.40;79.20;;;;;;6246101;23;20206;-84
2022/04/09 10:15:23;;;;;;;27.50;25.90;;;5.40;76.50;;;;;;6219112;23;20843;-85
2022/04/09 10:17:51;;;;;;;28.50;26.60;;;5.40;78.30;;;;;;6218966;23;20379;-84
2022/04/09 10:20:19;;;;;;;28.30;26.60;;;5.30;75.60;;;;;;6218781;23;20439;-84
2022/04/09 10:22:46;;;;;;;31.33;29.37;;;5.40;76.30;;;;;;6219082;23;20916;-83
2022/04/09 10:25:14;;;;;;;29.20;27.23;;;5.50;80.00;;;;;;6218925;23;20457;-83
2022/04/09 10:27:43;;;;;;;29.37;27.30;;;5.50;82.30;;;;;;6216758;23;20382;-83
2022/04/09 10:30:13;;;;;;;26.63;24.70;;;5.60;77.20;;;;;;6218050;23;20455;-79
2022/04/09 10:32:47;;;;;;;24.03;22.70;;;5.60;78.20;;;;;;6245187;23;20440;-78
2022/04/09 10:35:25;;;;;;;27.40;25.87;;;5.60;74.90;;;;;;6218052;23;20386;-80
2022/04/09 10:38:09;;;;;;;27.17;25.50;;;5.90;78.60;;;;;;6218287;23;20392;-78
2022/04/09 10:40:36;;;;;;;33.50;31.40;;;6.00;75.20;;;;;;6219541;23;20772;-78
2022/04/09 10:43:03;;;;;;;30.67;28.53;;;6.00;67.60;;;;;;6219930;23;20448;-77
2022/04/09 10:45:29;;;;;;;31.53;29.73;;;6.30;73.10;;;;;;6219449;23;20382;-77
2022/04/09 10:48:14;;;;;;;33.23;31.27;;;6.30;68.90;;;;;;6219981;23;20389;-78
2022/04/09 10:51:04;;;;;;;33.20;31.50;;;6.40;65.10;;;;;;6219584;23;20516;-77
2022/04/09 10:53:35;;;;;;;36.77;34.80;;;6.80;65.80;;;;;;6219196;23;20409;-77
2022/04/09 10:56:31;;;;;;;40.63;38.00;;;6.80;63.20;;;;;;6219668;23;20855;-77
2022/04/09 10:59:27;;;;;;;34.00;31.90;;;6.60;60.30;;;;;;6219632;23;20378;-77
2022/04/09 11:01:53;;;;;;;35.43;33.17;;;6.50;68.10;;;;;;6206518;23;20382;-77
2022/04/09 11:04:46;;;;;;;41.77;39.47;;;6.50;66.20;;;;;;6246349;23;20381;-77
2022/04/09 11:07:16;;;;;;;47.70;44.70;;;6.50;55.80;;;;;;6219949;23;20159;-77
2022/04/09 11:09:57;;;;;;;43.97;41.27;;;6.30;67.40;;;;;;6219691;23;20447;-77
2022/04/09 11:12:38;;;;;;;39.50;36.47;;;6.20;69.30;;;;;;6246769;23;20410;-78
2022/04/09 11:15:08;;;;;;;36.77;34.67;;;6.10;71.80;;;;;;6219566;23;20708;-77
2022/04/09 11:17:36;;;;;;;39.80;37.63;;;6.20;71.90;;;;;;6219633;23;20374;-77
2022/04/09 11:20:18;;;;;;;35.67;33.63;;;6.50;66.40;;;;;;6219222;23;20386;-77
2022/04/09 11:22:45;;;;;;;43.67;41.17;;;6.70;69.40;;;;;;6219298;23;20472;-77
2022/04/09 11:25:24;;;;;;;41.93;39.13;;;6.70;61.10;;;;;;6219275;23;20409;-77
2022/04/09 11:27:51;;;;;;;43.60;41.10;;;6.70;66.90;;;;;;6219415;23;20378;-77
2022/04/09 11:30:17;;;;;;;39.20;36.73;;;6.70;59.20;;;;;;6219326;23;20437;-77
2022/04/09 11:32:45;;;;;;;44.20;41.90;;;6.70;59.70;;;;;;6219263;23;20707;-77
2022/04/09 11:35:12;;;;;;;49.00;46.23;;;6.60;58.80;;;;;;6218932;23;20461;-77
2022/04/09 11:37:42;;;;;;;44.23;41.93;;;6.60;56.10;;;;;;6218886;23;20444;-78
2022/04/09 11:40:10;;;;;;;47.73;45.23;;;6.50;58.30;;;;;;6218915;23;20390;-78
2022/04/09 11:42:54;;;;;;;48.70;45.70;;;6.70;55.00;;;;;;6218991;23;20724;-79
2022/04/09 11:45:19;;;;;;;45.17;42.57;;;6.90;60.60;;;;;;6218581;23;20389;-76
2022/04/09 11:47:45;;;;;;;40.23;38.03;;;7.00;58.20;;;;;;6218642;23;20831;-76
2022/04/09 11:50:13;;;;;;;45.30;42.70;;;7.20;58.30;;;;;;6217858;23;20163;-76
2022/04/09 11:52:38;;;;;;;44.60;42.10;;;7.40;59.70;;;;;;6218668;23;20448;-75
2022/04/09 11:55:09;;;;;;;47.07;44.50;;;7.30;59.70;;;;;;6218957;23;20386;-75
2022/04/09 11:57:35;;;;;;;49.60;46.87;;;7.10;55.80;;;;;;6219187;23;20178;-76
2022/04/09 12:00:01;;;;;;;45.63;42.90;;;7.00;54.20;;;;;;6218396;23;20448;-76
2022/04/09 12:02:27;;;;;;;43.57;41.13;;;7.30;69.20;;;;;;6218719;23;20448;-76
2022/04/09 12:04:56;;;;;;;43.37;41.20;;;7.40;59.70;;;;;;6218076;23;20399;-76
2022/04/09 12:07:28;;;;;;;46.17;43.77;;;7.30;58.10;;;;;;6245104;23;20377;-76
2022/04/09 12:09:54;;;;;;;46.73;44.03;;;7.30;54.90;;;;;;6219153;23;21050;-74
2022/04/09 12:12:20;;;;;;;49.20;46.67;;;7.20;55.40;;;;;;6219052;23;20431;-74
2022/04/09 12:14:57;;;;;;;51.63;48.80;;;7.20;52.00;;;;;;6219177;23;20806;-80
2022/04/09 12:17:34;;;;;;;51.10;48.40;;;7.00;57.20;;;;;;6218701;23;20389;-79
2022/04/09 12:20:19;;;;;;;48.63;46.23;;;7.00;52.60;;;;;;6218851;23;20389;-79
2022/04/09 12:22:55;;;;;;;45.77;43.27;;;7.00;57.40;;;;;;6218139;23;20722;-78
2022/04/09 12:25:42;;;;;;;46.10;43.50;;;7.30;55.20;;;;;;6218085;23;20469;-78
2022/04/09 12:28:25;;;;;;;51.10;47.30;;;7.30;53.80;;;;;;6218323;23;20719;-79
2022/04/09 12:30:53;;;;;;;50.53;47.93;;;7.30;54.50;;;;;;6218340;23;20429;-78
2022/04/09 12:33:19;;;;;;;48.43;45.70;;;7.40;55.20;;;;;;6218853;23;20386;-78
2022/04/09 12:35:45;;;;;;;50.67;47.87;;;7.40;57.70;;;;;;6218634;23;20390;-78
2022/04/09 12:38:16;;;;;;;50.03;47.13;;;7.60;50.40;;;;;;6218924;23;20767;-80
2022/04/09 12:40:42;;;;;;;47.53;45.03;;;7.60;55.10;;;;;;6218959;23;20870;-78
2022/04/09 12:43:35;;;;;;;46.17;43.97;;;7.40;50.20;;;;;;6218672;23;20390;-79
2022/04/09 12:46:11;;;;;;;46.03;43.60;;;7.40;50.30;;;;;;6206764;23;20163;-78
2022/04/09 12:48:50;;;;;;;54.37;51.73;;;7.30;49.50;;;;;;6218562;23;20385;-79
2022/04/09 12:51:19;;;;;;;6.20;3.27;;;7.20;51.40;;;;;;6218139;23;20429;-79